Time;durP1;ratioP1;P1;durP2;ratioP2;P2;SDS_P1;SDS_P2;PMS_P1;PMS_P2;Temp;Humidity;BMP_temperature;BMP_pressure;BME280_temperature;BME280_humidity;BME280_pressure;Samples;Min_cycle;Max_cycle;Signal;HPM_P1;HPM_P2
2022/11/02 00:01:30;;;;;;;6.53;2.90;;;;;;;13.67;58.25;98092.38;5062579;28;20794;-70
2022/11/02 00:03:55;;;;;;;10.43;2.80;;;;;;;13.67;57.84;98089.75;5062698;28;20182;-69
2022/11/02 00:06:20;;;;;;;5.80;3.00;;;;;;;13.58;58.11;98090.66;5061414;28;20442;-69
2022/11/02 00:08:46;;;;;;;6.10;2.30;;;;;;;13.61;58.14;98095.59;5064121;28;20185;-70
2022/11/02 00:11:11;;;;;;;6.20;2.60;;;;;;;13.62;58.49;98091.19;5064008;28;20221;-70
2022/11/02 00:13:37;;;;;;;9.33;2.10;;;;;;;13.59;59.14;98094.94;5054203;28;20207;-70
2022/11/02 00:16:08;;;;;;;3.73;1.97;;;;;;;13.65;60.03;98096.97;5054322;28;20206;-70
2022/11/02 00:18:34;;;;;;;3.87;2.03;;;;;;;13.67;60.10;98094.22;5050405;28;20190;-70
2022/11/02 00:21:00;;;;;;;6.07;2.20;;;;;;;13.66;59.41;98093.38;5062062;28;20981;-70
2022/11/02 00:23:26;;;;;;;5.70;2.37;;;;;;;13.62;58.69;98088.53;5064851;28;20228;-69
2022/11/02 00:25:52;;;;;;;9.50;2.27;;;;;;;13.56;58.53;98092.63;5063403;28;20448;-70
2022/11/02 00:28:17;;;;;;;5.67;2.10;;;;;;;13.52;58.65;98094.72;5066315;28;20187;-69
2022/11/02 00:30:43;;;;;;;4.60;2.27;;;;;;;13.50;58.97;98091.41;5057097;28;20190;-71
2022/11/02 00:33:09;;;;;;;6.53;2.40;;;;;;;13.52;58.99;98096.50;5060273;28;20218;-70
2022/11/02 00:35:35;;;;;;;3.23;2.03;;;;;;;13.51;59.23;98100.13;5065613;28;20601;-71
2022/11/02 00:38:00;;;;;;;3.53;2.40;;;;;;;13.50;59.30;98103.72;5062045;28;20269;-70
2022/11/02 00:40:26;;;;;;;5.20;2.23;;;;;;;13.49;58.75;98102.91;5064944;28;20928;-69
2022/11/02 00:42:51;;;;;;;4.63;2.23;;;;;;;13.44;58.92;98101.69;5059219;28;20550;-70
2022/11/02 00:45:17;;;;;;;9.00;2.47;;;;;;;13.43;58.93;98105.31;5064716;28;20187;-70
2022/11/02 00:47:42;;;;;;;5.97;2.43;;;;;;;13.38;59.07;98108.38;5064347;28;20266;-70
2022/11/02 00:50:08;;;;;;;3.97;2.00;;;;;;;13.41;59.25;98107.25;5060116;28;20270;-70
2022/11/02 00:52:33;;;;;;;5.20;2.60;;;;;;;13.44;59.56;98112.25;5065983;28;20182;-70
2022/11/02 00:54:59;;;;;;;14.67;2.93;;;;;;;13.38;59.67;98111.00;5059308;28;20201;-69
2022/11/02 00:57:24;;;;;;;5.17;2.40;;;;;;;13.47;59.94;98114.56;5060729;28;20289;-69
2022/11/02 00:59:49;;;;;;;6.60;2.60;;;;;;;13.55;60.11;98112.03;5059506;28;20280;-69
2022/11/02 01:02:15;;;;;;;2.80;1.90;;;;;;;13.52;60.14;98115.78;5064411;28;20269;-69
2022/11/02 01:04:41;;;;;;;6.83;2.40;;;;;;;13.60;60.64;98109.78;5061190;28;20189;-70
2022/11/02 01:07:06;;;;;;;3.13;1.80;;;;;;;13.66;60.47;98117.06;5069038;28;20733;-70
2022/11/02 01:09:33;;;;;;;5.67;2.47;;;;;;;13.71;60.18;98111.34;5062451;28;20266;-70
2022/11/02 01:11:59;;;;;;;6.50;2.20;;;;;;;13.70;59.96;98117.59;5067442;28;20228;-70
2022/11/02 01:14:24;;;;;;;4.83;1.97;;;;;;;13.71;60.14;98105.25;5052766;28;20851;-70
2022/11/02 01:16:50;;;;;;;8.23;2.30;;;;;;;13.70;60.00;98104.41;5061434;28;20258;-70
2022/11/02 01:19:15;;;;;;;5.50;1.83;;;;;;;13.75;60.61;98114.50;5066700;28;20251;-70
2022/11/02 01:21:40;;;;;;;4.93;2.00;;;;;;;13.77;60.39;98116.03;5066516;28;20194;-70
2022/11/02 01:24:06;;;;;;;2.60;2.10;;;;;;;13.81;60.21;98116.56;5070093;28;20261;-70
2022/11/02 01:26:32;;;;;;;3.50;2.30;;;;;;;13.84;60.65;98111.00;5066221;28;20206;-71
2022/11/02 01:28:57;;;;;;;8.50;2.80;;;;;;;13.85;60.32;98106.53;5067229;28;20435;-70
2022/11/02 01:31:23;;;;;;;3.63;2.03;;;;;;;13.89;60.30;98106.06;5063669;28;20186;-69
2022/11/02 01:33:48;;;;;;;5.00;1.90;;;;;;;13.91;60.23;98100.66;5066074;28;20306;-71
2022/11/02 01:36:16;;;;;;;6.93;2.20;;;;;;;13.84;60.44;98100.44;5068597;28;20738;-70
2022/11/02 01:38:41;;;;;;;7.90;1.90;;;;;;;13.91;60.46;98106.75;5064550;28;20650;-69
2022/11/02 01:41:09;;;;;;;3.93;1.90;;;;;;;13.94;60.35;98101.19;5063503;28;20556;-70
2022/11/02 01:43:36;;;;;;;5.43;2.30;;;;;;;14.01;60.35;98100.56;5065895;28;20179;-70
2022/11/02 01:46:10;;;;;;;7.87;2.47;;;;;;;13.99;60.09;98095.47;5070315;28;20448;-70
2022/11/02 01:48:46;;;;;;;5.00;2.00;;;;;;;14.01;60.45;98101.41;5063477;28;20453;-71
2022/11/02 01:51:17;;;;;;;8.83;2.23;;;;;;;14.03;60.31;98095.97;5067914;28;20428;-71
2022/11/02 01:53:44;;;;;;;5.10;1.87;;;;;;;13.98;60.29;98092.00;5063393;28;20485;-70
2022/11/02 01:56:12;;;;;;;3.40;1.80;;;;;;;14.00;60.55;98093.63;5061428;28;20507;-70
2022/11/02 01:58:37;;;;;;;4.80;2.10;;;;;;;13.96;60.33;98091.34;5064423;28;20416;-70
2022/11/02 02:01:03;;;;;;;4.23;2.10;;;;;;;13.94;60.60;98095.91;5042958;28;20442;-70
2022/11/02 02:03:30;;;;;;;9.47;2.17;;;;;;;13.93;60.32;98085.50;5018565;28;20643;-70
2022/11/02 02:06:00;;;;;;;3.57;1.93;;;;;;;13.84;60.88;98074.09;5050562;28;20294;-69
2022/11/02 02:08:26;;;;;;;4.77;2.40;;;;;;;13.88;60.77;98070.16;5047729;28;20421;-70
2022/11/02 02:10:56;;;;;;;5.10;2.50;;;;;;;13.89;60.62;98063.09;5061496;28;20495;-71
2022/11/02 02:13:21;;;;;;;5.40;2.30;;;;;;;13.93;60.83;98057.38;5063921;28;20211;-70
2022/11/02 02:15:53;;;;;;;5.00;2.20;;;;;;;13.96;60.68;98057.06;5057994;28;20447;-70
2022/11/02 02:18:37;;;;;;;8.63;2.30;;;;;;;13.96;60.26;98061.50;5064477;28;20179;-70
2022/11/02 02:21:24;;;;;;;5.57;2.60;;;;;;;13.95;60.52;98044.03;5054260;28;20416;-70
2022/11/02 02:24:18;;;;;;;4.20;2.20;;;;;;;13.98;60.57;98038.47;5041143;28;20469;-70
2022/11/02 02:26:46;;;;;;;7.00;3.60;;;;;;;13.97;60.28;98045.56;5057256;28;20450;-70
2022/11/02 02:29:22;;;;;;;6.40;2.50;;;;;;;13.98;60.47;98054.28;5061858;28;20513;-70
2022/11/02 02:31:52;;;;;;;6.93;2.57;;;;;;;13.97;60.43;98053.47;5052713;28;20410;-70
2022/11/02 02:34:37;;;;;;;7.10;2.40;;;;;;;13.94;60.28;98047.63;5056393;28;20468;-70
2022/11/02 02:37:06;;;;;;;2.83;2.07;;;;;;;13.93;60.20;98051.25;5058342;28;20487;-71
2022/11/02 02:39:38;;;;;;;5.50;2.00;;;;;;;13.89;60.27;98050.75;5057854;28;20432;-70
2022/11/02 02:42:17;;;;;;;5.13;2.00;;;;;;;13.83;61.07;98051.38;5053438;28;20444;-70
2022/11/02 02:44:49;;;;;;;4.03;2.00;;;;;;;13.79;60.53;98055.28;5062484;28;20421;-69
2022/11/02 02:47:17;;;;;;;5.33;2.40;;;;;;;13.79;60.65;98056.13;5066050;28;20545;-69
2022/11/02 02:49:47;;;;;;;4.93;2.30;;;;;;;13.74;61.11;98044.34;5067400;28;20977;-68
2022/11/02 02:52:14;;;;;;;5.30;2.23;;;;;;;13.69;61.12;98049.25;5065780;28;20449;-70
2022/11/02 02:54:41;;;;;;;5.83;2.37;;;;;;;13.71;61.02;98039.41;5065478;28;20597;-71
2022/11/02 02:57:11;;;;;;;7.17;2.63;;;;;;;13.70;61.00;98041.19;5059110;28;20447;-70
2022/11/02 02:59:50;;;;;;;5.57;2.10;;;;;;;13.71;61.07;98039.41;5065936;28;20425;-70
2022/11/02 03:02:20;;;;;;;4.73;2.17;;;;;;;13.72;60.97;98038.44;5061269;28;20422;-70
2022/11/02 03:04:45;;;;;;;5.17;2.87;;;;;;;13.66;60.99;98040.69;5067590;28;20770;-70
2022/11/02 03:07:14;;;;;;;3.17;2.10;;;;;;;13.50;60.89;98035.25;5065698;28;20459;-71
2022/11/02 03:09:54;;;;;;;6.47;2.50;;;;;;;13.52;61.10;98035.94;5068229;28;20178;-71
2022/11/02 03:12:41;;;;;;;7.57;2.67;;;;;;;13.51;61.12;98042.19;5064689;28;20852;-70
2022/11/02 03:15:39;;;;;;;7.00;2.20;;;;;;;13.51;61.02;98043.03;5062825;28;20432;-70
2022/11/02 03:18:16;;;;;;;3.00;2.30;;;;;;;13.51;60.91;98043.03;5057990;28;20429;-69
2022/11/02 03:21:03;;;;;;;4.23;2.70;;;;;;;13.50;61.06;98056.31;5067596;28;20420;-70
2022/11/02 03:23:43;;;;;;;4.77;2.07;;;;;;;13.51;61.33;98050.09;5064563;28;20413;-70
2022/11/02 03:26:15;;;;;;;6.40;2.00;;;;;;;13.52;61.21;98049.09;5065912;28;20495;-70
2022/11/02 03:29:00;;;;;;;3.90;2.10;;;;;;;13.51;61.46;98055.34;5062833;28;20421;-70
2022/11/02 03:31:34;;;;;;;4.27;2.40;;;;;;;13.52;61.61;98046.47;5065236;28;20843;-70
2022/11/02 03:34:12;;;;;;;4.33;2.43;;;;;;;13.58;61.55;98048.53;5067031;28;20554;-70
2022/11/02 03:36:48;;;;;;;9.37;2.47;;;;;;;13.58;61.18;98059.06;5044697;28;20967;-70
2022/11/02 03:39:19;;;;;;;10.97;2.10;;;;;;;13.53;61.47;98061.31;5066422;28;20425;-69
2022/11/02 03:41:45;;;;;;;5.10;2.43;;;;;;;13.51;61.43;98064.09;5052051;28;20416;-70
2022/11/02 03:44:15;;;;;;;5.47;2.20;;;;;;;13.56;61.54;98065.44;5067376;28;20431;-70
2022/11/02 03:46:42;;;;;;;5.63;2.47;;;;;;;13.55;61.50;98064.63;5058419;28;21209;-70
2022/11/02 03:49:11;;;;;;;4.50;1.97;;;;;;;13.55;61.38;98053.22;5064778;28;20434;-70
2022/11/02 03:51:38;;;;;;;5.87;2.20;;;;;;;13.50;61.77;98057.16;5063561;28;20433;-70
2022/11/02 03:54:06;;;;;;;4.83;2.20;;;;;;;13.55;61.58;98054.09;5065362;28;20849;-68
2022/11/02 03:56:37;;;;;;;8.40;2.50;;;;;;;13.60;61.42;98067.63;5062323;28;20943;-70
2022/11/02 03:59:02;;;;;;;6.47;2.60;;;;;;;13.64;61.58;98073.44;5061555;28;20444;-70
2022/11/02 04:01:29;;;;;;;4.30;2.50;;;;;;;13.67;61.45;98067.88;5060627;28;20428;-69
2022/11/02 04:03:54;;;;;;;9.33;2.20;;;;;;;13.74;61.24;98079.44;5058825;28;20665;-69
2022/11/02 04:06:19;;;;;;;5.57;2.33;;;;;;;13.77;61.00;98073.03;5060964;28;20444;-68
2022/11/02 04:08:47;;;;;;;3.80;2.10;;;;;;;13.69;60.80;98075.59;5062129;28;20313;-71
2022/11/02 04:16:40;;;;;;;6.73;2.10;;;;;;;13.30;61.53;98072.25;5046036;28;20433;-70
2022/11/02 04:27:17;;;;;;;6.33;2.30;;;;;;;13.46;61.98;98083.97;5061596;28;20937;-70
2022/11/02 04:29:43;;;;;;;5.53;2.03;;;;;;;13.47;61.91;98078.53;5056765;28;20428;-70
2022/11/02 04:32:09;;;;;;;5.73;2.13;;;;;;;13.48;61.74;98084.63;5057936;28;20894;-70
2022/11/02 04:34:34;;;;;;;3.40;2.20;;;;;;;13.51;61.81;98073.78;5059920;28;20229;-68
2022/11/02 04:37:00;;;;;;;6.80;2.67;;;;;;;13.52;61.64;98080.72;5064484;28;20444;-70
2022/11/02 04:39:25;;;;;;;5.27;2.20;;;;;;;13.53;61.36;98082.38;5061688;28;20206;-70
2022/11/02 04:41:51;;;;;;;4.93;1.80;;;;;;;13.51;61.21;98076.41;5049206;28;20184;-69
2022/11/02 04:44:16;;;;;;;10.93;2.70;;;;;;;13.51;61.43;98076.41;5065682;28;20682;-70
2022/11/02 04:46:43;;;;;;;3.13;2.10;;;;;;;13.47;60.93;98080.34;5055686;28;20687;-69
2022/11/02 04:49:09;;;;;;;4.57;2.03;;;;;;;13.48;61.14;98079.38;5019440;28;20214;-70
2022/11/02 04:51:35;;;;;;;4.90;2.00;;;;;;;13.48;60.82;98089.91;5057651;28;20596;-69
2022/11/02 04:54:01;;;;;;;6.50;2.43;;;;;;;13.43;61.06;98098.22;5064438;28;21031;-68
2022/11/02 04:56:27;;;;;;;4.00;2.40;;;;;;;13.41;61.26;98094.09;5058504;28;20202;-68
2022/11/02 04:58:55;;;;;;;4.80;2.33;;;;;;;13.40;60.99;98101.19;5064593;28;20234;-70
2022/11/02 05:01:23;;;;;;;3.00;2.27;;;;;;;13.39;60.95;98098.66;5066502;28;20424;-69
2022/11/02 05:03:49;;;;;;;4.00;2.00;;;;;;;13.32;60.82;98099.25;5056946;28;20410;-69
2022/11/02 05:06:16;;;;;;;4.77;2.37;;;;;;;13.26;60.73;98102.47;5065857;28;20436;-68
2022/11/02 05:08:42;;;;;;;4.77;2.63;;;;;;;13.21;60.67;98091.56;5059670;28;20461;-69
2022/11/02 05:11:09;;;;;;;6.13;2.70;;;;;;;13.23;61.06;98099.31;5065482;28;20566;-68
2022/11/02 05:13:35;;;;;;;2.77;1.80;;;;;;;13.22;61.12;98095.84;5060000;28;20218;-70
2022/11/02 05:16:01;;;;;;;6.83;3.30;;;;;;;13.18;61.23;98097.94;5066053;28;20974;-70
2022/11/02 05:18:27;;;;;;;4.77;2.53;;;;;;;13.24;61.12;98098.31;5063250;28;20455;-69
2022/11/02 05:20:55;;;;;;;6.50;2.03;;;;;;;13.28;61.24;98095.25;5044914;28;20183;-69
2022/11/02 05:23:20;;;;;;;6.70;1.83;;;;;;;13.32;61.34;98101.88;5066964;28;20417;-70
2022/11/02 05:26:00;;;;;;;7.33;1.80;;;;;;;13.31;61.13;98099.38;5061005;28;20514;-69
2022/11/02 05:28:26;;;;;;;3.77;2.00;;;;;;;13.32;61.07;98104.50;5067068;28;20571;-70
2022/11/02 05:30:52;;;;;;;4.57;1.50;;;;;;;13.36;61.00;98105.03;5059506;28;20792;-70
2022/11/02 05:33:18;;;;;;;8.67;2.30;;;;;;;13.36;60.97;98105.84;5061521;28;20460;-71
2022/11/02 05:35:44;;;;;;;8.30;1.70;;;;;;;13.36;61.08;98113.75;5062630;28;20211;-70
2022/11/02 05:38:09;;;;;;;7.20;1.70;;;;;;;13.40;61.17;98108.22;5063241;28;20180;-70
2022/11/02 05:40:39;;;;;;;5.80;1.70;;;;;;;13.46;61.04;98107.66;5059595;28;20211;-70
2022/11/02 05:43:08;;;;;;;8.23;1.70;;;;;;;13.44;60.83;98107.78;5062688;28;20564;-70
2022/11/02 05:45:34;;;;;;;6.80;1.97;;;;;;;13.46;60.64;98110.28;5064652;28;20501;-70
2022/11/02 05:48:00;;;;;;;6.17;1.60;;;;;;;13.46;60.64;98118.19;5057600;28;20424;-70
2022/11/02 05:50:26;;;;;;;7.53;1.80;;;;;;;13.51;60.87;98113.28;5047827;28;20183;-69
2022/11/02 05:52:51;;;;;;;5.90;1.70;;;;;;;13.49;60.66;98115.22;5061024;28;20420;-70
2022/11/02 05:55:17;;;;;;;6.27;2.50;;;;;;;13.47;60.63;98120.66;5063807;28;20175;-70
2022/11/02 05:57:42;;;;;;;5.50;2.23;;;;;;;13.44;60.60;98120.13;5059498;28;20281;-70
2022/11/02 06:00:09;;;;;;;4.90;2.10;;;;;;;13.46;60.54;98128.72;5065885;28;20666;-69
2022/11/02 06:02:34;;;;;;;4.33;1.73;;;;;;;13.39;60.76;98122.34;5063848;28;20561;-69
2022/11/02 06:04:59;;;;;;;3.97;2.13;;;;;;;13.46;60.88;98129.53;5054289;28;20425;-69
2022/11/02 06:07:25;;;;;;;4.60;1.93;;;;;;;13.48;60.89;98121.50;5062285;28;20198;-70
2022/11/02 06:09:50;;;;;;;7.10;1.80;;;;;;;13.54;60.85;98120.91;5066203;28;20706;-69
2022/11/02 06:12:16;;;;;;;3.60;1.77;;;;;;;13.56;60.77;98129.47;5067161;28;20237;-71
2022/11/02 06:14:41;;;;;;;8.70;2.67;;;;;;;13.61;60.57;98132.47;5063932;28;20202;-70
2022/11/02 06:17:06;;;;;;;7.37;2.37;;;;;;;13.64;60.52;98137.47;5068769;28;20198;-70
2022/11/02 06:19:32;;;;;;;6.73;1.90;;;;;;;13.67;60.41;98134.53;5060941;28;20199;-70
2022/11/02 06:21:57;;;;;;;9.53;1.70;;;;;;;13.70;60.37;98145.75;5060042;28;20624;-71
2022/11/02 06:24:23;;;;;;;6.63;1.83;;;;;;;13.73;60.58;98140.19;5045386;28;20187;-70
2022/11/02 06:26:48;;;;;;;4.97;1.97;;;;;;;13.76;60.40;98145.16;5057021;28;20287;-70
2022/11/02 06:29:14;;;;;;;6.37;2.10;;;;;;;13.74;60.20;98144.47;5049633;28;20241;-70
2022/11/02 06:31:39;;;;;;;6.50;2.90;;;;;;;13.74;60.32;98152.34;5059604;28;20661;-71
2022/11/02 06:34:05;;;;;;;6.30;2.57;;;;;;;13.76;60.29;98153.03;5065093;28;20265;-68
2022/11/02 06:36:30;;;;;;;7.73;2.63;;;;;;;13.75;60.27;98154.03;5061232;28;20213;-69
2022/11/02 06:38:55;;;;;;;11.60;2.53;;;;;;;13.73;60.02;98158.63;5064311;28;20185;-70
2022/11/02 06:41:21;;;;;;;12.77;2.97;;;;;;;13.76;60.35;98160.94;5059053;28;20222;-70
2022/11/02 06:43:46;;;;;;;15.83;3.10;;;;;;;13.72;60.07;98162.25;5069862;28;20247;-70
2022/11/02 06:46:12;;;;;;;4.43;2.60;;;;;;;13.69;60.46;98162.53;5063258;28;20297;-70
2022/11/02 06:48:37;;;;;;;3.43;2.40;;;;;;;13.75;60.83;98167.19;5049030;28;20174;-69
2022/11/02 06:51:04;;;;;;;6.30;3.00;;;;;;;13.78;60.49;98170.38;5060148;28;20191;-70
2022/11/02 06:53:29;;;;;;;8.13;3.83;;;;;;;13.82;60.96;98173.53;5061784;28;20194;-71
2022/11/02 06:55:56;;;;;;;6.27;3.23;;;;;;;13.91;61.08;98185.81;5060501;28;20443;-70
2022/11/02 06:58:23;;;;;;;9.10;2.93;;;;;;;13.96;61.18;98191.47;5054239;28;20195;-70
2022/11/02 07:00:49;;;;;;;8.90;3.37;;;;;;;14.08;61.36;98185.97;5049950;28;20444;-71
2022/11/02 07:03:14;;;;;;;14.13;2.80;;;;;;;13.96;61.72;98195.91;5060203;28;20876;-71
2022/11/02 07:05:39;;;;;;;9.10;1.87;;;;;;;14.03;61.56;98193.50;5046821;28;20655;-72
2022/11/02 07:08:05;;;;;;;6.67;2.20;;;;;;;14.13;61.51;98205.63;5051086;28;20183;-69
2022/11/02 07:10:30;;;;;;;7.60;2.00;;;;;;;14.24;61.33;98204.56;5051545;28;20209;-70
2022/11/02 07:12:56;;;;;;;6.53;2.10;;;;;;;14.35;61.12;98213.25;5056432;28;20182;-70
2022/11/02 07:15:23;;;;;;;5.60;1.83;;;;;;;14.41;61.25;98220.53;5056995;28;20270;-70
2022/11/02 07:17:49;;;;;;;9.73;2.40;;;;;;;14.49;61.07;98212.69;5050809;28;20482;-71
2022/11/02 07:20:15;;;;;;;9.00;1.73;;;;;;;14.50;60.70;98222.25;5041461;28;20414;-72
2022/11/02 07:22:40;;;;;;;7.67;1.93;;;;;;;14.48;60.81;98224.22;5036319;28;20183;-72
2022/11/02 07:25:06;;;;;;;6.03;1.80;;;;;;;14.61;60.46;98228.28;5047169;28;20175;-72
2022/11/02 07:27:37;;;;;;;7.83;2.00;;;;;;;14.67;60.29;98220.63;5046695;28;20289;-73
2022/11/02 07:30:03;;;;;;;9.63;1.93;;;;;;;14.72;60.33;98234.16;5053858;28;20188;-72
2022/11/02 07:32:29;;;;;;;8.90;2.70;;;;;;;14.73;59.99;98237.66;5057703;28;20424;-71
2022/11/02 07:34:54;;;;;;;11.27;2.10;;;;;;;14.86;60.01;98230.16;5060969;28;20286;-73
2022/11/02 07:37:19;;;;;;;10.57;3.47;;;;;;;14.98;59.44;98236.00;5064591;28;20206;-72
2022/11/02 07:39:45;;;;;;;23.20;11.07;;;;;;;15.09;59.83;98227.00;5063779;28;20185;-72
2022/11/02 07:42:10;;;;;;;12.73;4.77;;;;;;;15.16;59.69;98235.13;5061597;28;20210;-72
2022/11/02 07:44:36;;;;;;;8.37;3.53;;;;;;;15.28;59.93;98238.31;5067359;28;20216;-71
2022/11/02 07:47:01;;;;;;;10.93;4.37;;;;;;;15.36;59.74;98239.19;5059515;28;20222;-71
2022/11/02 07:49:27;;;;;;;7.27;2.40;;;;;;;15.38;58.94;98246.94;5068706;28;20881;-72
2022/11/02 07:51:52;;;;;;;4.33;2.30;;;;;;;15.42;58.60;98247.47;5060512;28;20637;-72
2022/11/02 07:54:17;;;;;;;7.00;2.07;;;;;;;15.49;58.62;98248.47;5068070;28;20224;-72
2022/11/02 07:56:44;;;;;;;7.47;1.77;;;;;;;15.52;57.90;98253.44;5060580;28;20194;-71
2022/11/02 07:59:11;;;;;;;4.73;2.43;;;;;;;15.50;57.89;98252.78;5065788;28;20179;-71
2022/11/02 08:01:37;;;;;;;7.73;3.03;;;;;;;15.62;58.05;98258.63;5066918;28;20477;-73
2022/11/02 08:04:02;;;;;;;9.77;2.07;;;;;;;15.67;58.00;98256.31;5059861;28;20418;-73
2022/11/02 08:06:28;;;;;;;16.37;2.90;;;;;;;15.78;57.99;98253.38;5061816;28;20559;-72
2022/11/02 08:08:53;;;;;;;8.23;1.90;;;;;;;15.92;58.19;98249.34;5042301;28;20187;-71
2022/11/02 08:11:19;;;;;;;11.33;2.10;;;;;;;16.05;57.73;98248.03;5050073;28;20190;-72
2022/11/02 08:13:44;;;;;;;7.60;2.10;;;;;;;16.19;57.61;98249.22;5037389;28;20294;-72
2022/11/02 08:16:10;;;;;;;13.77;2.77;;;;;;;16.25;56.67;98248.59;5046885;28;20275;-73
2022/11/02 08:18:35;;;;;;;12.60;1.73;;;;;;;16.31;56.49;98253.19;5052295;28;20175;-71
2022/11/02 08:21:01;;;;;;;6.30;1.77;;;;;;;16.37;56.65;98260.50;5034604;28;20182;-72
2022/11/02 08:23:26;;;;;;;14.20;2.27;;;;;;;16.56;56.55;98255.88;5058536;28;20171;-71
2022/11/02 08:25:52;;;;;;;7.23;2.67;;;;;;;16.78;56.13;98258.84;5039053;28;20208;-72
2022/11/02 08:28:23;;;;;;;7.23;2.07;;;;;;;16.86;55.45;98261.50;5046376;28;20261;-70
2022/11/02 08:30:48;;;;;;;10.10;2.13;;;;;;;16.99;55.22;98258.34;5041189;28;20569;-72
2022/11/02 08:33:16;;;;;;;5.90;2.13;;;;;;;17.00;54.89;98257.38;5065961;28;20461;-71
2022/11/02 08:35:42;;;;;;;6.03;2.00;;;;;;;17.13;54.81;98256.84;5053652;28;20327;-72
2022/11/02 08:38:08;;;;;;;8.73;1.63;;;;;;;17.24;54.54;98258.31;5060975;28;21044;-70
2022/11/02 08:40:35;;;;;;;3.20;1.50;;;;;;;17.26;54.03;98251.88;5054786;28;20421;-71
2022/11/02 08:43:02;;;;;;;12.53;2.27;;;;;;;17.35;54.23;98257.94;5056333;28;20217;-71
2022/11/02 08:45:28;;;;;;;10.10;2.00;;;;;;;17.42;54.12;98263.38;5064758;28;20417;-69
2022/11/02 08:47:54;;;;;;;4.30;1.40;;;;;;;17.47;54.32;98263.72;5055027;28;20417;-72
2022/11/02 08:50:20;;;;;;;8.17;3.30;;;;;;;17.49;53.94;98269.69;5064331;28;20575;-72
2022/11/02 08:52:45;;;;;;;3.80;1.70;;;;;;;17.48;53.77;98270.66;5063631;28;20182;-72
2022/11/02 08:55:10;;;;;;;3.27;1.57;;;;;;;17.49;54.04;98256.44;5053391;28;20617;-71
2022/11/02 08:57:49;;;;;;;9.03;1.77;;;;;;;17.48;54.01;98254.78;5061754;28;20194;-71
2022/11/02 09:00:16;;;;;;;6.10;1.97;;;;;;;17.58;53.78;98255.41;5067033;28;20186;-72
2022/11/02 09:02:42;;;;;;;5.43;1.60;;;;;;;17.68;53.54;98259.66;5065163;28;20424;-71
2022/11/02 09:05:09;;;;;;;8.00;1.70;;;;;;;17.66;53.15;98258.00;5058072;28;20415;-72
2022/11/02 09:07:34;;;;;;;6.70;1.80;;;;;;;17.68;53.08;98259.66;5061840;28;20531;-70
2022/11/02 09:09:59;;;;;;;6.70;1.63;;;;;;;17.76;52.76;98268.41;5061541;28;20504;-72
2022/11/02 09:12:25;;;;;;;7.50;1.70;;;;;;;17.81;52.32;98265.22;5065978;28;20178;-71
2022/11/02 09:14:50;;;;;;;4.77;1.40;;;;;;;17.82;52.12;98266.88;5061254;28;20194;-72
2022/11/02 09:17:16;;;;;;;3.70;1.40;;;;;;;17.78;51.80;98277.03;5066093;28;20203;-71
2022/11/02 09:19:41;;;;;;;6.07;1.60;;;;;;;17.68;52.00;98275.56;5064771;28;20175;-72
2022/11/02 09:22:07;;;;;;;4.57;1.40;;;;;;;17.61;52.05;98263.00;5060570;28;20178;-70
2022/11/02 09:24:32;;;;;;;7.30;1.53;;;;;;;17.63;52.13;98274.28;5065979;28;20262;-72
2022/11/02 09:26:57;;;;;;;5.03;1.37;;;;;;;17.65;52.01;98268.78;5058282;28;20198;-71
2022/11/02 09:29:23;;;;;;;4.63;1.40;;;;;;;17.68;52.11;98270.25;5065676;28;20270;-71
2022/11/02 09:31:48;;;;;;;8.33;1.40;;;;;;;17.62;51.91;98272.63;5062219;28;20256;-71
2022/11/02 09:34:14;;;;;;;7.60;1.60;;;;;;;17.66;52.03;98267.78;5064560;28;20333;-72
2022/11/02 09:36:40;;;;;;;5.47;1.50;;;;;;;17.64;51.32;98264.47;5059027;28;20238;-71
2022/11/02 09:39:06;;;;;;;9.50;1.60;;;;;;;17.64;51.53;98269.78;5066550;28;21011;-70
2022/11/02 09:41:36;;;;;;;4.13;1.17;;;;;;;17.63;51.17;98268.97;5061310;28;20174;-70
2022/11/02 09:44:10;;;;;;;5.70;1.50;;;;;;;17.66;51.08;98268.59;5070129;28;20664;-71
2022/11/02 09:46:41;;;;;;;8.00;2.07;;;;;;;17.72;51.27;98274.22;5058455;28;20434;-71
2022/11/02 09:49:12;;;;;;;3.80;1.73;;;;;;;17.74;51.45;98269.59;5066938;28;20423;-70
2022/11/02 09:51:41;;;;;;;6.47;1.73;;;;;;;17.79;51.17;98280.47;5056598;28;20990;-71
2022/11/02 09:54:13;;;;;;;10.83;1.63;;;;;;;17.80;51.21;98282.97;5068389;28;20501;-69
2022/11/02 09:56:39;;;;;;;4.80;1.33;;;;;;;17.80;50.67;98280.31;5064011;28;20481;-70
2022/11/02 09:59:11;;;;;;;4.13;1.67;;;;;;;17.82;50.46;98282.78;5070002;28;20421;-70
2022/11/02 10:02:14;;;;;;;6.00;1.63;;;;;;;17.79;49.29;98286.63;5067754;28;20784;-71
2022/11/02 10:05:07;;;;;;;6.20;1.90;;;;;;;17.76;48.86;98288.81;5052144;28;20416;-70
2022/11/02 10:08:01;;;;;;;4.23;1.43;;;;;;;17.80;49.16;98290.09;5064642;28;20433;-71
2022/11/02 10:10:37;;;;;;;6.20;1.83;;;;;;;17.84;49.37;98291.41;5064875;28;20405;-71
2022/11/02 10:13:14;;;;;;;8.20;1.90;;;;;;;17.89;49.17;98289.09;5063369;28;20412;-72
2022/11/02 10:15:55;;;;;;;6.57;1.60;;;;;;;17.89;48.67;98288.25;5065378;28;20417;-71
2022/11/02 10:18:28;;;;;;;6.13;1.70;;;;;;;17.89;48.15;98288.25;5068633;28;20965;-72
2022/11/02 10:20:59;;;;;;;5.83;1.30;;;;;;;17.88;48.01;98289.22;5057462;28;20418;-71
2022/11/02 10:23:38;;;;;;;8.17;1.93;;;;;;;17.93;48.23;98284.25;5070566;28;20494;-70
2022/11/02 10:26:03;;;;;;;5.23;1.30;;;;;;;17.95;47.70;98285.72;5055293;28;21003;-72
2022/11/02 10:28:33;;;;;;;7.37;1.73;;;;;;;17.95;47.97;98279.59;5067076;28;20428;-72
2022/11/02 10:31:00;;;;;;;6.20;2.17;;;;;;;17.98;47.66;98275.81;5062275;28;20179;-72
2022/11/02 10:33:27;;;;;;;9.20;1.50;;;;;;;17.95;47.68;98283.06;5049125;28;20959;-71
2022/11/02 10:36:02;;;;;;;3.93;1.73;;;;;;;18.03;47.51;98284.03;5063669;28;20436;-73
2022/11/02 10:38:34;;;;;;;4.17;1.30;;;;;;;18.07;46.80;98274.75;5067170;28;20420;-71
2022/11/02 10:41:05;;;;;;;4.80;1.60;;;;;;;18.11;46.82;98270.75;5056658;28;20467;-72
2022/11/02 10:43:48;;;;;;;8.20;1.70;;;;;;;18.13;46.47;98267.91;5053823;28;20926;-71
2022/11/02 10:46:41;;;;;;;6.60;1.80;;;;;;;18.12;46.38;98267.09;5060896;28;20804;-71
2022/11/02 10:49:20;;;;;;;9.70;1.70;;;;;;;18.06;46.47;98267.78;5067476;28;20420;-72
2022/11/02 10:51:45;;;;;;;7.20;1.77;;;;;;;18.07;46.32;98274.75;5058123;28;20421;-71
2022/11/02 10:54:13;;;;;;;6.00;1.43;;;;;;;18.12;46.81;98277.72;5067593;28;20817;-71
2022/11/02 10:56:40;;;;;;;4.77;1.73;;;;;;;18.05;46.52;98280.25;5062939;28;20190;-70
2022/11/02 10:59:11;;;;;;;9.87;1.60;;;;;;;18.11;46.69;98278.72;5068859;28;20455;-70
2022/11/02 11:01:36;;;;;;;8.47;1.93;;;;;;;18.10;46.62;98277.06;5067059;28;20428;-71
2022/11/02 11:04:04;;;;;;;4.23;1.63;;;;;;;18.08;46.59;98274.56;5061226;28;20467;-72
2022/11/02 11:06:38;;;;;;;6.77;1.93;;;;;;;18.01;46.72;98281.56;5059945;28;20190;-72
2022/11/02 11:09:06;;;;;;;8.37;1.77;;;;;;;18.02;46.91;98272.63;5058814;28;20932;-72
2022/11/02 11:11:35;;;;;;;13.10;2.10;;;;;;;18.10;46.71;98266.44;5056749;28;20423;-72
2022/11/02 11:14:06;;;;;;;6.90;1.70;;;;;;;18.13;46.78;98274.06;5054123;28;20541;-70
2022/11/02 11:16:40;;;;;;;5.43;1.43;;;;;;;18.11;46.16;98268.91;5055034;28;21039;-71
2022/11/02 11:19:17;;;;;;;5.30;1.33;;;;;;;18.14;46.46;98270.41;5062940;28;20432;-71
2022/11/02 11:21:43;;;;;;;7.93;1.70;;;;;;;18.19;46.50;98268.03;5063138;28;20429;-71
2022/11/02 11:24:23;;;;;;;8.73;1.63;;;;;;;18.20;46.16;98279.50;5065529;28;20421;-71
2022/11/02 11:27:01;;;;;;;6.90;1.47;;;;;;;18.25;46.29;98271.81;5062345;28;20484;-72
2022/11/02 11:29:33;;;;;;;8.70;1.67;;;;;;;18.35;46.20;98264.44;5067789;28;21110;-70
2022/11/02 11:32:00;;;;;;;6.80;2.00;;;;;;;18.44;45.71;98270.53;5058811;28;20981;-71
2022/11/02 11:34:31;;;;;;;6.30;1.90;;;;;;;18.52;45.56;98270.50;5063786;28;20468;-71
2022/11/02 11:37:11;;;;;;;7.33;1.80;;;;;;;18.61;45.46;98271.22;5063097;28;20464;-71
2022/11/02 11:39:38;;;;;;;10.13;2.60;;;;;;;18.81;44.88;98266.25;5065801;28;20431;-71
2022/11/02 11:42:13;;;;;;;7.00;1.60;;;;;;;19.33;44.68;98266.47;5062026;28;20417;-69
2022/11/02 11:44:43;;;;;;;7.40;2.10;;;;;;;19.83;44.66;98253.41;5066793;28;20407;-70
2022/11/02 11:47:10;;;;;;;5.27;1.93;;;;;;;20.28;43.77;98250.66;5060044;28;20437;-71
2022/11/02 11:49:44;;;;;;;6.80;1.60;;;;;;;20.62;42.55;98241.13;5067458;28;20413;-71
2022/11/02 11:52:17;;;;;;;9.23;1.90;;;;;;;21.00;41.53;98246.19;5062075;28;20421;-72